Terminal Aerodrome Forecast
Issued by NWS

Home | Current Version | Previous Version | Text Only | Print | Product List | Glossary On
Versions: 1 2 3 4 5 6 7 8 9 10 11 12 13 14
000
FTUS42 TJSJ 051140
TAFKPK
TAF
TKPK 051140Z 0512/0612 06017G27KT P6SM FEW022
     FM052200 06015KT P6SM SCT020
      AMD NOT SKED 0602/0611=

USA.gov is the U.S. government's official web portal to all federal, state and local government web resources and services.